Neptune Beach, Florida
Current Conditions -  °F | °C
As of 7:52 PM on Friday 24 Oct 2014 (Local Time) from KNRB Reporting Station
Clear Clear  
Wind Chill: 67°   Ceiling: Unl
Heat Index: 67°   Visibility: 10mi
Dew Point: 56°   Wind: 6mph
Humidity: 68%   Direction: 350°N
Pressure: 29.98"   Gusts: NA
Location:  30.32°N, 81.41°W
Report Text: KNRB 242352Z AUTO 35005KT 10SM CLR 19/13 A2998 RMK AO2 SLP152 T01940133 10233 20189 53004
Loading
Personal Weather Stations






























Interactive Weather Map
Tropical Storm Tracking
New forecast layout! Learn more

10-Day Weather Forecast

Advertisements
Track Severe Weather on mobile